sensor_id;sensor_type;location;lat;lon;timestamp;P1;durP1;ratioP1;P2;durP2;ratioP2
177;SDS011;77;48.792;9.032;2024-03-22T00:02:02;19.95;;;14.07;;
177;SDS011;77;48.792;9.032;2024-03-22T00:04:27;19.97;;;14.40;;
177;SDS011;77;48.792;9.032;2024-03-22T00:06:52;21.50;;;14.60;;
177;SDS011;77;48.792;9.032;2024-03-22T00:09:19;21.90;;;14.97;;
177;SDS011;77;48.792;9.032;2024-03-22T00:11:44;20.57;;;14.33;;
177;SDS011;77;48.792;9.032;2024-03-22T00:14:10;20.65;;;13.93;;
177;SDS011;77;48.792;9.032;2024-03-22T00:16:35;21.70;;;14.83;;
177;SDS011;77;48.792;9.032;2024-03-22T00:19:00;23.33;;;15.00;;
177;SDS011;77;48.792;9.032;2024-03-22T00:21:26;21.10;;;14.00;;
177;SDS011;77;48.792;9.032;2024-03-22T00:23:51;20.30;;;14.27;;
177;SDS011;77;48.792;9.032;2024-03-22T00:26:18;21.27;;;14.23;;
177;SDS011;77;48.792;9.032;2024-03-22T00:28:43;20.30;;;13.93;;
177;SDS011;77;48.792;9.032;2024-03-22T00:31:08;19.40;;;13.33;;
177;SDS011;77;48.792;9.032;2024-03-22T00:33:33;21.60;;;13.53;;
177;SDS011;77;48.792;9.032;2024-03-22T00:35:58;21.00;;;14.10;;
177;SDS011;77;48.792;9.032;2024-03-22T00:38:23;23.83;;;14.50;;
177;SDS011;77;48.792;9.032;2024-03-22T00:40:49;20.07;;;14.60;;
177;SDS011;77;48.792;9.032;2024-03-22T00:43:15;20.30;;;13.20;;
177;SDS011;77;48.792;9.032;2024-03-22T00:45:40;19.30;;;12.80;;
177;SDS011;77;48.792;9.032;2024-03-22T00:48:05;18.37;;;12.80;;
177;SDS011;77;48.792;9.032;2024-03-22T00:50:31;20.03;;;12.33;;
177;SDS011;77;48.792;9.032;2024-03-22T00:52:56;18.47;;;13.07;;
177;SDS011;77;48.792;9.032;2024-03-22T00:55:21;20.75;;;13.02;;
177;SDS011;77;48.792;9.032;2024-03-22T00:57:46;18.90;;;13.07;;
177;SDS011;77;48.792;9.032;2024-03-22T01:00:13;19.85;;;13.50;;
177;SDS011;77;48.792;9.032;2024-03-22T01:02:38;18.20;;;13.00;;
177;SDS011;77;48.792;9.032;2024-03-22T01:05:04;21.13;;;13.90;;
177;SDS011;77;48.792;9.032;2024-03-22T01:07:29;20.10;;;13.63;;
177;SDS011;77;48.792;9.032;2024-03-22T01:09:54;19.83;;;13.50;;
177;SDS011;77;48.792;9.032;2024-03-22T01:12:19;21.70;;;13.93;;
177;SDS011;77;48.792;9.032;2024-03-22T01:14:44;18.50;;;13.47;;
177;SDS011;77;48.792;9.032;2024-03-22T01:17:11;18.50;;;13.57;;
177;SDS011;77;48.792;9.032;2024-03-22T01:19:36;19.00;;;13.80;;
177;SDS011;77;48.792;9.032;2024-03-22T01:22:01;21.15;;;14.52;;
177;SDS011;77;48.792;9.032;2024-03-22T01:24:26;19.27;;;13.40;;
177;SDS011;77;48.792;9.032;2024-03-22T01:26:51;21.40;;;14.47;;
177;SDS011;77;48.792;9.032;2024-03-22T01:29:16;20.65;;;13.45;;
177;SDS011;77;48.792;9.032;2024-03-22T01:31:42;21.13;;;12.70;;
177;SDS011;77;48.792;9.032;2024-03-22T01:34:08;19.75;;;13.82;;
177;SDS011;77;48.792;9.032;2024-03-22T01:36:33;20.37;;;13.80;;
177;SDS011;77;48.792;9.032;2024-03-22T01:38:58;22.20;;;14.63;;
177;SDS011;77;48.792;9.032;2024-03-22T01:41:24;22.83;;;14.75;;
177;SDS011;77;48.792;9.032;2024-03-22T01:43:49;21.67;;;14.57;;
177;SDS011;77;48.792;9.032;2024-03-22T01:46:14;19.07;;;13.70;;
177;SDS011;77;48.792;9.032;2024-03-22T01:48:39;20.67;;;13.90;;
177;SDS011;77;48.792;9.032;2024-03-22T01:51:06;20.13;;;13.90;;
177;SDS011;77;48.792;9.032;2024-03-22T01:53:32;26.33;;;14.80;;
177;SDS011;77;48.792;9.032;2024-03-22T01:55:58;21.23;;;14.07;;
177;SDS011;77;48.792;9.032;2024-03-22T01:58:23;19.03;;;13.20;;
177;SDS011;77;48.792;9.032;2024-03-22T02:00:48;18.40;;;13.50;;
177;SDS011;77;48.792;9.032;2024-03-22T02:03:13;19.50;;;12.87;;
177;SDS011;77;48.792;9.032;2024-03-22T02:05:39;18.80;;;12.57;;
177;SDS011;77;48.792;9.032;2024-03-22T02:08:06;21.30;;;13.37;;
177;SDS011;77;48.792;9.032;2024-03-22T02:10:31;20.83;;;13.10;;
177;SDS011;77;48.792;9.032;2024-03-22T02:12:56;17.20;;;12.90;;
177;SDS011;77;48.792;9.032;2024-03-22T02:15:21;18.53;;;13.40;;
177;SDS011;77;48.792;9.032;2024-03-22T02:17:46;20.10;;;13.33;;
177;SDS011;77;48.792;9.032;2024-03-22T02:20:12;18.93;;;12.80;;
177;SDS011;77;48.792;9.032;2024-03-22T02:22:37;18.83;;;13.10;;
177;SDS011;77;48.792;9.032;2024-03-22T02:25:04;17.47;;;12.57;;
177;SDS011;77;48.792;9.032;2024-03-22T02:27:29;22.03;;;13.00;;
177;SDS011;77;48.792;9.032;2024-03-22T02:29:54;20.30;;;13.57;;
177;SDS011;77;48.792;9.032;2024-03-22T02:32:19;17.40;;;12.30;;
177;SDS011;77;48.792;9.032;2024-03-22T02:34:45;21.13;;;13.00;;
177;SDS011;77;48.792;9.032;2024-03-22T02:37:10;19.10;;;13.23;;
177;SDS011;77;48.792;9.032;2024-03-22T02:39:35;26.00;;;14.00;;
177;SDS011;77;48.792;9.032;2024-03-22T02:42:01;18.93;;;13.17;;
177;SDS011;77;48.792;9.032;2024-03-22T02:44:27;19.87;;;13.30;;
177;SDS011;77;48.792;9.032;2024-03-22T02:46:52;19.20;;;13.00;;
177;SDS011;77;48.792;9.032;2024-03-22T02:49:17;18.37;;;12.80;;
177;SDS011;77;48.792;9.032;2024-03-22T02:51:42;17.50;;;12.60;;
177;SDS011;77;48.792;9.032;2024-03-22T02:54:07;20.33;;;12.73;;
177;SDS011;77;48.792;9.032;2024-03-22T02:56:32;18.50;;;12.73;;
177;SDS011;77;48.792;9.032;2024-03-22T02:58:59;19.20;;;12.90;;
177;SDS011;77;48.792;9.032;2024-03-22T03:01:24;21.30;;;13.20;;
177;SDS011;77;48.792;9.032;2024-03-22T03:03:49;24.73;;;14.38;;
177;SDS011;77;48.792;9.032;2024-03-22T03:06:14;18.50;;;13.33;;
177;SDS011;77;48.792;9.032;2024-03-22T03:08:39;17.30;;;12.23;;
177;SDS011;77;48.792;9.032;2024-03-22T03:11:05;17.85;;;12.32;;
177;SDS011;77;48.792;9.032;2024-03-22T03:13:30;18.50;;;12.40;;
177;SDS011;77;48.792;9.032;2024-03-22T03:15:56;18.00;;;12.37;;
177;SDS011;77;48.792;9.032;2024-03-22T03:18:22;17.20;;;11.90;;
177;SDS011;77;48.792;9.032;2024-03-22T03:20:47;17.20;;;12.10;;
177;SDS011;77;48.792;9.032;2024-03-22T03:23:12;20.45;;;12.35;;
177;SDS011;77;48.792;9.032;2024-03-22T03:25:37;20.50;;;12.30;;
177;SDS011;77;48.792;9.032;2024-03-22T03:28:02;17.60;;;11.85;;
177;SDS011;77;48.792;9.032;2024-03-22T03:30:28;17.43;;;11.70;;
177;SDS011;77;48.792;9.032;2024-03-22T03:32:54;18.50;;;11.70;;
177;SDS011;77;48.792;9.032;2024-03-22T03:35:19;15.40;;;11.30;;
177;SDS011;77;48.792;9.032;2024-03-22T03:37:44;19.30;;;11.00;;
177;SDS011;77;48.792;9.032;2024-03-22T03:40:10;13.80;;;10.07;;
177;SDS011;77;48.792;9.032;2024-03-22T03:42:35;14.17;;;10.13;;
177;SDS011;77;48.792;9.032;2024-03-22T03:45:00;18.30;;;10.25;;
177;SDS011;77;48.792;9.032;2024-03-22T03:47:25;17.30;;;10.53;;
177;SDS011;77;48.792;9.032;2024-03-22T03:49:52;15.90;;;10.30;;
177;SDS011;77;48.792;9.032;2024-03-22T03:52:17;15.07;;;10.30;;
177;SDS011;77;48.792;9.032;2024-03-22T03:54:42;15.60;;;10.73;;
177;SDS011;77;48.792;9.032;2024-03-22T03:57:07;14.93;;;10.27;;
177;SDS011;77;48.792;9.032;2024-03-22T03:59:32;14.77;;;10.37;;
177;SDS011;77;48.792;9.032;2024-03-22T04:01:57;15.33;;;10.50;;
177;SDS011;77;48.792;9.032;2024-03-22T04:04:22;16.80;;;10.90;;
177;SDS011;77;48.792;9.032;2024-03-22T04:06:49;17.40;;;11.20;;
177;SDS011;77;48.792;9.032;2024-03-22T04:09:14;16.23;;;11.13;;
177;SDS011;77;48.792;9.032;2024-03-22T04:11:39;14.73;;;10.90;;
177;SDS011;77;48.792;9.032;2024-03-22T04:14:04;17.90;;;10.70;;
177;SDS011;77;48.792;9.032;2024-03-22T04:16:30;19.33;;;9.90;;
177;SDS011;77;48.792;9.032;2024-03-22T04:18:55;18.55;;;11.13;;
177;SDS011;77;48.792;9.032;2024-03-22T04:21:20;14.75;;;10.70;;
177;SDS011;77;48.792;9.032;2024-03-22T04:23:46;14.20;;;9.80;;
177;SDS011;77;48.792;9.032;2024-03-22T04:26:11;13.20;;;9.30;;
177;SDS011;77;48.792;9.032;2024-03-22T04:28:37;14.53;;;10.37;;
177;SDS011;77;48.792;9.032;2024-03-22T04:31:02;13.20;;;9.50;;
177;SDS011;77;48.792;9.032;2024-03-22T04:33:28;13.77;;;9.43;;
177;SDS011;77;48.792;9.032;2024-03-22T04:35:53;12.97;;;9.40;;
177;SDS011;77;48.792;9.032;2024-03-22T04:38:19;14.40;;;9.90;;
177;SDS011;77;48.792;9.032;2024-03-22T04:40:45;13.73;;;9.13;;
177;SDS011;77;48.792;9.032;2024-03-22T04:43:10;13.80;;;9.30;;
177;SDS011;77;48.792;9.032;2024-03-22T04:45:35;13.70;;;9.27;;
177;SDS011;77;48.792;9.032;2024-03-22T04:48:01;12.93;;;8.95;;
177;SDS011;77;48.792;9.032;2024-03-22T04:50:26;14.03;;;9.10;;
177;SDS011;77;48.792;9.032;2024-03-22T04:52:51;15.67;;;9.80;;
177;SDS011;77;48.792;9.032;2024-03-22T04:55:16;15.43;;;9.57;;
177;SDS011;77;48.792;9.032;2024-03-22T04:57:43;13.63;;;9.20;;
177;SDS011;77;48.792;9.032;2024-03-22T05:00:08;14.87;;;9.27;;
177;SDS011;77;48.792;9.032;2024-03-22T05:02:33;13.80;;;9.77;;
177;SDS011;77;48.792;9.032;2024-03-22T05:04:58;13.10;;;9.40;;
177;SDS011;77;48.792;9.032;2024-03-22T05:07:24;15.00;;;9.30;;
177;SDS011;77;48.792;9.032;2024-03-22T05:09:49;14.17;;;9.70;;
177;SDS011;77;48.792;9.032;2024-03-22T05:12:14;14.20;;;9.90;;
177;SDS011;77;48.792;9.032;2024-03-22T05:14:40;13.20;;;9.10;;
177;SDS011;77;48.792;9.032;2024-03-22T05:17:06;14.77;;;9.13;;
177;SDS011;77;48.792;9.032;2024-03-22T05:19:31;13.43;;;9.27;;
177;SDS011;77;48.792;9.032;2024-03-22T05:21:56;15.15;;;9.43;;
177;SDS011;77;48.792;9.032;2024-03-22T05:24:21;13.90;;;9.30;;
177;SDS011;77;48.792;9.032;2024-03-22T05:26:46;14.85;;;9.02;;
177;SDS011;77;48.792;9.032;2024-03-22T05:29:11;14.80;;;9.57;;
177;SDS011;77;48.792;9.032;2024-03-22T05:31:45;15.00;;;10.20;;
177;SDS011;77;48.792;9.032;2024-03-22T05:34:10;16.50;;;9.90;;
177;SDS011;77;48.792;9.032;2024-03-22T05:36:35;14.30;;;9.02;;
177;SDS011;77;48.792;9.032;2024-03-22T05:39:01;14.27;;;9.15;;
177;SDS011;77;48.792;9.032;2024-03-22T05:41:26;13.93;;;9.40;;
177;SDS011;77;48.792;9.032;2024-03-22T05:43:51;14.40;;;9.30;;
177;SDS011;77;48.792;9.032;2024-03-22T05:46:16;14.15;;;9.00;;
177;SDS011;77;48.792;9.032;2024-03-22T05:48:42;15.68;;;8.70;;
177;SDS011;77;48.792;9.032;2024-03-22T05:51:08;12.37;;;9.10;;
177;SDS011;77;48.792;9.032;2024-03-22T05:53:33;15.67;;;9.57;;
177;SDS011;77;48.792;9.032;2024-03-22T05:55:58;13.10;;;9.27;;
177;SDS011;77;48.792;9.032;2024-03-22T05:58:23;15.23;;;9.70;;
177;SDS011;77;48.792;9.032;2024-03-22T06:00:48;12.85;;;9.02;;
177;SDS011;77;48.792;9.032;2024-03-22T06:03:13;13.10;;;8.75;;
177;SDS011;77;48.792;9.032;2024-03-22T06:05:40;13.80;;;9.17;;
177;SDS011;77;48.792;9.032;2024-03-22T06:08:05;14.67;;;9.70;;
177;SDS011;77;48.792;9.032;2024-03-22T06:10:30;11.10;;;8.30;;
177;SDS011;77;48.792;9.032;2024-03-22T06:12:56;13.57;;;9.40;;
177;SDS011;77;48.792;9.032;2024-03-22T06:15:21;14.25;;;9.25;;
177;SDS011;77;48.792;9.032;2024-03-22T06:17:46;13.32;;;9.43;;
177;SDS011;77;48.792;9.032;2024-03-22T06:20:11;14.88;;;9.35;;
177;SDS011;77;48.792;9.032;2024-03-22T06:22:38;12.50;;;9.30;;
177;SDS011;77;48.792;9.032;2024-03-22T06:25:03;14.20;;;9.03;;
177;SDS011;77;48.792;9.032;2024-03-22T06:27:28;12.37;;;8.60;;
177;SDS011;77;48.792;9.032;2024-03-22T06:29:53;14.00;;;8.93;;
177;SDS011;77;48.792;9.032;2024-03-22T06:32:18;15.00;;;9.65;;
177;SDS011;77;48.792;9.032;2024-03-22T06:34:44;17.65;;;9.23;;
177;SDS011;77;48.792;9.032;2024-03-22T06:37:09;15.13;;;10.32;;
177;SDS011;77;48.792;9.032;2024-03-22T06:39:35;16.60;;;10.88;;
177;SDS011;77;48.792;9.032;2024-03-22T06:42:00;13.03;;;9.37;;
177;SDS011;77;48.792;9.032;2024-03-22T06:44:26;15.73;;;10.30;;
177;SDS011;77;48.792;9.032;2024-03-22T06:46:51;15.88;;;10.60;;
177;SDS011;77;48.792;9.032;2024-03-22T06:49:16;15.47;;;10.10;;
177;SDS011;77;48.792;9.032;2024-03-22T06:51:41;16.07;;;9.90;;
177;SDS011;77;48.792;9.032;2024-03-22T06:54:06;16.30;;;10.40;;
177;SDS011;77;48.792;9.032;2024-03-22T06:56:33;16.23;;;9.40;;
177;SDS011;77;48.792;9.032;2024-03-22T06:58:58;16.53;;;10.10;;
177;SDS011;77;48.792;9.032;2024-03-22T07:01:23;14.70;;;9.27;;
177;SDS011;77;48.792;9.032;2024-03-22T07:03:48;14.70;;;9.60;;
177;SDS011;77;48.792;9.032;2024-03-22T07:06:13;15.00;;;10.02;;
177;SDS011;77;48.792;9.032;2024-03-22T07:08:39;13.10;;;9.33;;
177;SDS011;77;48.792;9.032;2024-03-22T07:11:04;13.40;;;9.90;;
177;SDS011;77;48.792;9.032;2024-03-22T07:13:31;15.23;;;10.60;;
177;SDS011;77;48.792;9.032;2024-03-22T07:15:56;15.70;;;10.40;;
177;SDS011;77;48.792;9.032;2024-03-22T07:18:21;17.48;;;11.88;;
177;SDS011;77;48.792;9.032;2024-03-22T07:20:46;16.50;;;10.47;;
177;SDS011;77;48.792;9.032;2024-03-22T07:23:11;17.58;;;11.48;;
177;SDS011;77;48.792;9.032;2024-03-22T07:25:37;16.13;;;10.93;;
177;SDS011;77;48.792;9.032;2024-03-22T07:28:02;15.70;;;10.60;;
177;SDS011;77;48.792;9.032;2024-03-22T07:30:28;18.63;;;10.67;;
177;SDS011;77;48.792;9.032;2024-03-22T07:32:54;16.40;;;10.53;;
177;SDS011;77;48.792;9.032;2024-03-22T07:35:19;15.03;;;10.43;;
177;SDS011;77;48.792;9.032;2024-03-22T07:37:44;17.02;;;9.55;;
177;SDS011;77;48.792;9.032;2024-03-22T07:40:09;18.00;;;10.57;;
177;SDS011;77;48.792;9.032;2024-03-22T07:42:34;20.07;;;9.70;;
177;SDS011;77;48.792;9.032;2024-03-22T07:45:00;16.88;;;10.07;;
177;SDS011;77;48.792;9.032;2024-03-22T07:47:26;17.33;;;11.60;;
177;SDS011;77;48.792;9.032;2024-03-22T07:49:51;15.80;;;9.97;;
177;SDS011;77;48.792;9.032;2024-03-22T07:52:16;15.45;;;10.52;;
177;SDS011;77;48.792;9.032;2024-03-22T07:54:41;17.40;;;10.43;;
177;SDS011;77;48.792;9.032;2024-03-22T07:57:07;15.93;;;9.70;;
177;SDS011;77;48.792;9.032;2024-03-22T07:59:32;21.47;;;10.90;;
177;SDS011;77;48.792;9.032;2024-03-22T08:01:57;15.10;;;9.80;;
177;SDS011;77;48.792;9.032;2024-03-22T08:04:23;17.50;;;10.03;;
177;SDS011;77;48.792;9.032;2024-03-22T08:06:50;16.13;;;10.47;;
177;SDS011;77;48.792;9.032;2024-03-22T08:09:15;16.63;;;10.80;;
177;SDS011;77;48.792;9.032;2024-03-22T08:11:40;17.30;;;9.87;;
177;SDS011;77;48.792;9.032;2024-03-22T08:14:05;14.23;;;9.80;;
177;SDS011;77;48.792;9.032;2024-03-22T08:16:30;16.73;;;10.18;;
177;SDS011;77;48.792;9.032;2024-03-22T08:18:56;13.60;;;9.30;;
177;SDS011;77;48.792;9.032;2024-03-22T08:21:23;17.30;;;10.00;;
177;SDS011;77;48.792;9.032;2024-03-22T08:23:48;17.50;;;10.10;;
177;SDS011;77;48.792;9.032;2024-03-22T08:26:13;13.80;;;9.50;;
177;SDS011;77;48.792;9.032;2024-03-22T08:28:38;19.80;;;10.37;;
177;SDS011;77;48.792;9.032;2024-03-22T08:31:03;13.37;;;9.40;;
177;SDS011;77;48.792;9.032;2024-03-22T08:33:28;19.43;;;11.03;;
177;SDS011;77;48.792;9.032;2024-03-22T08:35:54;15.18;;;10.23;;
177;SDS011;77;48.792;9.032;2024-03-22T08:38:20;17.30;;;9.90;;
177;SDS011;77;48.792;9.032;2024-03-22T08:40:45;15.83;;;10.60;;
177;SDS011;77;48.792;9.032;2024-03-22T08:43:10;16.48;;;10.40;;
177;SDS011;77;48.792;9.032;2024-03-22T08:45:36;16.47;;;10.70;;
177;SDS011;77;48.792;9.032;2024-03-22T08:48:01;15.93;;;10.97;;
177;SDS011;77;48.792;9.032;2024-03-22T08:50:26;23.03;;;11.10;;
177;SDS011;77;48.792;9.032;2024-03-22T08:52:51;16.53;;;10.80;;
177;SDS011;77;48.792;9.032;2024-03-22T08:55:18;16.90;;;10.03;;
177;SDS011;77;48.792;9.032;2024-03-22T08:57:43;15.43;;;10.03;;
177;SDS011;77;48.792;9.032;2024-03-22T09:00:08;14.88;;;9.85;;
177;SDS011;77;48.792;9.032;2024-03-22T09:02:34;14.00;;;9.80;;
177;SDS011;77;48.792;9.032;2024-03-22T09:04:59;16.15;;;9.25;;
177;SDS011;77;48.792;9.032;2024-03-22T09:07:25;14.97;;;9.47;;
177;SDS011;77;48.792;9.032;2024-03-22T09:09:51;16.97;;;9.33;;
177;SDS011;77;48.792;9.032;2024-03-22T09:12:18;14.27;;;9.20;;
177;SDS011;77;48.792;9.032;2024-03-22T09:14:43;19.03;;;10.10;;
177;SDS011;77;48.792;9.032;2024-03-22T09:17:08;13.47;;;9.30;;
177;SDS011;77;48.792;9.032;2024-03-22T09:19:33;16.45;;;8.95;;
177;SDS011;77;48.792;9.032;2024-03-22T09:21:59;13.18;;;8.82;;
177;SDS011;77;48.792;9.032;2024-03-22T09:24:24;14.10;;;8.77;;
177;SDS011;77;48.792;9.032;2024-03-22T09:26:49;14.57;;;8.77;;
177;SDS011;77;48.792;9.032;2024-03-22T09:29:15;15.27;;;9.43;;
177;SDS011;77;48.792;9.032;2024-03-22T09:31:40;15.07;;;9.00;;
177;SDS011;77;48.792;9.032;2024-03-22T09:34:06;16.83;;;10.17;;
177;SDS011;77;48.792;9.032;2024-03-22T09:36:31;11.93;;;8.40;;
177;SDS011;77;48.792;9.032;2024-03-22T09:38:56;11.00;;;8.33;;
177;SDS011;77;48.792;9.032;2024-03-22T09:41:23;13.95;;;8.50;;
177;SDS011;77;48.792;9.032;2024-03-22T09:43:48;14.33;;;9.20;;
177;SDS011;77;48.792;9.032;2024-03-22T09:46:16;12.20;;;8.80;;
177;SDS011;77;48.792;9.032;2024-03-22T09:48:42;12.77;;;7.77;;
177;SDS011;77;48.792;9.032;2024-03-22T09:51:08;11.33;;;8.03;;
177;SDS011;77;48.792;9.032;2024-03-22T09:53:33;14.00;;;8.40;;
177;SDS011;77;48.792;9.032;2024-03-22T09:55:59;11.67;;;7.70;;
177;SDS011;77;48.792;9.032;2024-03-22T09:58:25;16.43;;;9.70;;
177;SDS011;77;48.792;9.032;2024-03-22T10:00:50;15.10;;;10.00;;
177;SDS011;77;48.792;9.032;2024-03-22T10:03:16;13.40;;;8.23;;
177;SDS011;77;48.792;9.032;2024-03-22T10:05:41;11.70;;;7.70;;
177;SDS011;77;48.792;9.032;2024-03-22T10:08:07;14.93;;;8.00;;
177;SDS011;77;48.792;9.032;2024-03-22T10:10:32;16.30;;;7.50;;
177;SDS011;77;48.792;9.032;2024-03-22T10:12:57;9.33;;;6.50;;
177;SDS011;77;48.792;9.032;2024-03-22T10:15:23;14.03;;;7.20;;
177;SDS011;77;48.792;9.032;2024-03-22T10:17:48;12.27;;;8.20;;
177;SDS011;77;48.792;9.032;2024-03-22T10:20:15;11.55;;;6.72;;
177;SDS011;77;48.792;9.032;2024-03-22T10:22:43;14.03;;;6.90;;
177;SDS011;77;48.792;9.032;2024-03-22T10:25:08;10.60;;;6.90;;
177;SDS011;77;48.792;9.032;2024-03-22T10:27:33;9.57;;;5.90;;
177;SDS011;77;48.792;9.032;2024-03-22T10:29:58;10.93;;;7.23;;
177;SDS011;77;48.792;9.032;2024-03-22T10:32:24;10.27;;;6.57;;
177;SDS011;77;48.792;9.032;2024-03-22T10:34:49;13.50;;;7.47;;
177;SDS011;77;48.792;9.032;2024-03-22T10:37:16;11.30;;;7.20;;
177;SDS011;77;48.792;9.032;2024-03-22T10:39:42;11.33;;;6.53;;
177;SDS011;77;48.792;9.032;2024-03-22T10:42:07;12.90;;;5.40;;
177;SDS011;77;48.792;9.032;2024-03-22T10:44:32;7.70;;;5.13;;
177;SDS011;77;48.792;9.032;2024-03-22T10:46:57;9.20;;;6.03;;
177;SDS011;77;48.792;9.032;2024-03-22T10:49:25;12.20;;;5.57;;
177;SDS011;77;48.792;9.032;2024-03-22T10:51:53;13.20;;;6.77;;
177;SDS011;77;48.792;9.032;2024-03-22T10:54:21;12.27;;;6.03;;
177;SDS011;77;48.792;9.032;2024-03-22T10:56:48;11.87;;;6.50;;
177;SDS011;77;48.792;9.032;2024-03-22T10:59:14;7.30;;;5.33;;
177;SDS011;77;48.792;9.032;2024-03-22T11:01:39;6.80;;;5.00;;
177;SDS011;77;48.792;9.032;2024-03-22T11:04:04;9.87;;;5.80;;
177;SDS011;77;48.792;9.032;2024-03-22T11:06:30;8.10;;;5.30;;
177;SDS011;77;48.792;9.032;2024-03-22T11:08:58;8.77;;;5.13;;
177;SDS011;77;48.792;9.032;2024-03-22T11:11:25;10.00;;;6.17;;
177;SDS011;77;48.792;9.032;2024-03-22T11:13:53;9.73;;;5.90;;
177;SDS011;77;48.792;9.032;2024-03-22T11:16:18;13.80;;;5.80;;
177;SDS011;77;48.792;9.032;2024-03-22T11:18:44;7.90;;;5.17;;
177;SDS011;77;48.792;9.032;2024-03-22T11:21:09;13.60;;;5.40;;
177;SDS011;77;48.792;9.032;2024-03-22T11:23:35;9.10;;;4.77;;
177;SDS011;77;48.792;9.032;2024-03-22T11:26:00;9.40;;;4.97;;
177;SDS011;77;48.792;9.032;2024-03-22T11:28:27;6.43;;;4.60;;
177;SDS011;77;48.792;9.032;2024-03-22T11:30:52;9.30;;;5.40;;
177;SDS011;77;48.792;9.032;2024-03-22T11:33:17;11.03;;;6.00;;
177;SDS011;77;48.792;9.032;2024-03-22T11:35:43;9.00;;;5.47;;
177;SDS011;77;48.792;9.032;2024-03-22T11:38:08;9.53;;;5.27;;
177;SDS011;77;48.792;9.032;2024-03-22T11:40:33;8.25;;;5.35;;
177;SDS011;77;48.792;9.032;2024-03-22T11:42:59;14.30;;;5.00;;
177;SDS011;77;48.792;9.032;2024-03-22T11:45:26;7.80;;;5.20;;
177;SDS011;77;48.792;9.032;2024-03-22T11:47:51;8.27;;;4.70;;
177;SDS011;77;48.792;9.032;2024-03-22T11:50:17;8.80;;;5.13;;
177;SDS011;77;48.792;9.032;2024-03-22T11:52:42;6.63;;;4.20;;
177;SDS011;77;48.792;9.032;2024-03-22T11:55:07;7.83;;;4.33;;
177;SDS011;77;48.792;9.032;2024-03-22T11:57:32;6.10;;;4.37;;
177;SDS011;77;48.792;9.032;2024-03-22T11:59:58;7.73;;;5.10;;
177;SDS011;77;48.792;9.032;2024-03-22T12:02:25;7.63;;;4.77;;
177;SDS011;77;48.792;9.032;2024-03-22T12:04:50;9.30;;;4.50;;
177;SDS011;77;48.792;9.032;2024-03-22T12:07:16;8.37;;;4.83;;
177;SDS011;77;48.792;9.032;2024-03-22T12:09:41;7.60;;;5.00;;
177;SDS011;77;48.792;9.032;2024-03-22T12:12:07;7.28;;;4.70;;
177;SDS011;77;48.792;9.032;2024-03-22T12:14:33;6.77;;;4.57;;
177;SDS011;77;48.792;9.032;2024-03-22T12:16:58;7.57;;;4.60;;
177;SDS011;77;48.792;9.032;2024-03-22T12:19:24;8.18;;;4.30;;
177;SDS011;77;48.792;9.032;2024-03-22T12:21:50;7.40;;;4.60;;
177;SDS011;77;48.792;9.032;2024-03-22T12:24:15;7.30;;;4.40;;
177;SDS011;77;48.792;9.032;2024-03-22T12:26:40;5.77;;;4.00;;
177;SDS011;77;48.792;9.032;2024-03-22T12:29:05;8.43;;;4.22;;
177;SDS011;77;48.792;9.032;2024-03-22T12:31:30;9.05;;;4.15;;
177;SDS011;77;48.792;9.032;2024-03-22T12:33:55;5.27;;;4.00;;
177;SDS011;77;48.792;9.032;2024-03-22T12:36:22;5.22;;;4.00;;
177;SDS011;77;48.792;9.032;2024-03-22T12:38:47;7.53;;;4.03;;
177;SDS011;77;48.792;9.032;2024-03-22T12:41:12;5.53;;;3.80;;
177;SDS011;77;48.792;9.032;2024-03-22T12:43:37;8.77;;;4.60;;
177;SDS011;77;48.792;9.032;2024-03-22T12:46:03;5.53;;;4.05;;
177;SDS011;77;48.792;9.032;2024-03-22T12:48:28;6.30;;;3.90;;
177;SDS011;77;48.792;9.032;2024-03-22T12:50:53;7.72;;;3.65;;
177;SDS011;77;48.792;9.032;2024-03-22T12:53:20;4.20;;;3.40;;
177;SDS011;77;48.792;9.032;2024-03-22T12:55:45;6.27;;;4.10;;
177;SDS011;77;48.792;9.032;2024-03-22T12:58:10;6.45;;;3.92;;
177;SDS011;77;48.792;9.032;2024-03-22T13:00:35;10.93;;;4.30;;
177;SDS011;77;48.792;9.032;2024-03-22T13:03:00;6.27;;;3.77;;
177;SDS011;77;48.792;9.032;2024-03-22T13:05:26;5.30;;;3.60;;
177;SDS011;77;48.792;9.032;2024-03-22T13:07:52;7.40;;;4.00;;
177;SDS011;77;48.792;9.032;2024-03-22T13:10:18;12.60;;;4.40;;
177;SDS011;77;48.792;9.032;2024-03-22T13:12:44;7.57;;;4.80;;
177;SDS011;77;48.792;9.032;2024-03-22T13:15:09;7.23;;;4.30;;
177;SDS011;77;48.792;9.032;2024-03-22T13:17:34;8.10;;;4.20;;
177;SDS011;77;48.792;9.032;2024-03-22T13:19:59;6.85;;;4.38;;
177;SDS011;77;48.792;9.032;2024-03-22T13:22:24;7.32;;;4.90;;
177;SDS011;77;48.792;9.032;2024-03-22T13:24:49;11.23;;;4.68;;
177;SDS011;77;48.792;9.032;2024-03-22T13:27:16;93.70;;;9.30;;
177;SDS011;77;48.792;9.032;2024-03-22T13:29:41;7.23;;;4.50;;
177;SDS011;77;48.792;9.032;2024-03-22T13:32:06;8.20;;;4.70;;
177;SDS011;77;48.792;9.032;2024-03-22T13:34:31;7.50;;;4.40;;
177;SDS011;77;48.792;9.032;2024-03-22T13:36:56;6.63;;;4.53;;
177;SDS011;77;48.792;9.032;2024-03-22T13:39:22;5.53;;;4.33;;
177;SDS011;77;48.792;9.032;2024-03-22T13:41:47;7.43;;;4.70;;
177;SDS011;77;48.792;9.032;2024-03-22T13:44:13;7.60;;;4.53;;
177;SDS011;77;48.792;9.032;2024-03-22T13:46:38;7.77;;;4.33;;
177;SDS011;77;48.792;9.032;2024-03-22T13:49:04;6.90;;;4.50;;
177;SDS011;77;48.792;9.032;2024-03-22T13:51:29;10.60;;;4.68;;
177;SDS011;77;48.792;9.032;2024-03-22T13:53:54;6.70;;;4.13;;
177;SDS011;77;48.792;9.032;2024-03-22T13:56:19;8.38;;;4.10;;
177;SDS011;77;48.792;9.032;2024-03-22T13:58:44;11.35;;;4.88;;
177;SDS011;77;48.792;9.032;2024-03-22T14:01:11;11.02;;;4.60;;
177;SDS011;77;48.792;9.032;2024-03-22T14:03:36;9.03;;;4.30;;
177;SDS011;77;48.792;9.032;2024-03-22T14:06:01;9.63;;;5.27;;
177;SDS011;77;48.792;9.032;2024-03-22T14:08:26;11.00;;;5.70;;
177;SDS011;77;48.792;9.032;2024-03-22T14:10:51;8.50;;;5.60;;
177;SDS011;77;48.792;9.032;2024-03-22T14:13:16;7.60;;;4.67;;
177;SDS011;77;48.792;9.032;2024-03-22T14:15:42;8.95;;;4.40;;
177;SDS011;77;48.792;9.032;2024-03-22T14:18:08;6.35;;;3.83;;
177;SDS011;77;48.792;9.032;2024-03-22T14:20:33;4.97;;;3.67;;
177;SDS011;77;48.792;9.032;2024-03-22T14:22:58;6.13;;;3.83;;
177;SDS011;77;48.792;9.032;2024-03-22T14:25:23;5.03;;;3.22;;
177;SDS011;77;48.792;9.032;2024-03-22T14:27:49;4.18;;;3.15;;
177;SDS011;77;48.792;9.032;2024-03-22T14:30:14;8.60;;;3.65;;
177;SDS011;77;48.792;9.032;2024-03-22T14:32:39;5.13;;;2.90;;
177;SDS011;77;48.792;9.032;2024-03-22T14:35:06;6.30;;;3.40;;
177;SDS011;77;48.792;9.032;2024-03-22T14:37:31;4.60;;;3.10;;
177;SDS011;77;48.792;9.032;2024-03-22T14:39:56;5.03;;;3.00;;
177;SDS011;77;48.792;9.032;2024-03-22T14:42:22;5.33;;;3.40;;
177;SDS011;77;48.792;9.032;2024-03-22T14:44:47;9.15;;;3.22;;
177;SDS011;77;48.792;9.032;2024-03-22T14:47:12;6.83;;;3.20;;
177;SDS011;77;48.792;9.032;2024-03-22T14:49:37;4.55;;;3.10;;
177;SDS011;77;48.792;9.032;2024-03-22T14:52:04;6.47;;;3.50;;
177;SDS011;77;48.792;9.032;2024-03-22T14:54:29;8.30;;;3.23;;
177;SDS011;77;48.792;9.032;2024-03-22T14:56:54;6.53;;;3.30;;
177;SDS011;77;48.792;9.032;2024-03-22T14:59:19;4.75;;;3.00;;
177;SDS011;77;48.792;9.032;2024-03-22T15:01:44;6.27;;;3.00;;
177;SDS011;77;48.792;9.032;2024-03-22T15:04:10;6.53;;;3.00;;
177;SDS011;77;48.792;9.032;2024-03-22T15:06:35;5.00;;;3.13;;
177;SDS011;77;48.792;9.032;2024-03-22T15:09:01;4.72;;;2.90;;
177;SDS011;77;48.792;9.032;2024-03-22T15:11:26;3.60;;;2.73;;
177;SDS011;77;48.792;9.032;2024-03-22T15:13:52;4.80;;;2.90;;
177;SDS011;77;48.792;9.032;2024-03-22T15:16:17;5.10;;;2.60;;
177;SDS011;77;48.792;9.032;2024-03-22T15:18:42;4.82;;;3.05;;
177;SDS011;77;48.792;9.032;2024-03-22T15:21:07;5.93;;;2.92;;
177;SDS011;77;48.792;9.032;2024-03-22T15:23:32;3.67;;;2.80;;
177;SDS011;77;48.792;9.032;2024-03-22T15:25:59;7.40;;;3.23;;
177;SDS011;77;48.792;9.032;2024-03-22T15:28:24;4.00;;;2.80;;
177;SDS011;77;48.792;9.032;2024-03-22T15:30:49;4.13;;;3.08;;